Aviation Digital Data Service (ADDS)

Output produced by METARs form (1219 UTC 22 March 2019)
found at http://www.aviationweather.gov/metar/data/
 
METAR text: GMTT 221200Z 10020KT 9999 FEW030 19/07 Q1021 NOSIG
Conditions at: GMTT (TANGIER/BOUKHALF, MA) observed 1200 UTC 22 March 2019
Temperature: 19.0°C (66°F)
Dewpoint: 7.0°C (45°F) [RH = 46%]
Pressure (altimeter): 30.15 inches Hg (1021.0 mb)
Winds: from the E (100 degrees) at 23 MPH (20 knots; 10.3 m/s)
Visibility: 6 or more miles (10+ km)
Ceiling: at least 12,000 feet AGL
Clouds: few clouds at 3000 feet AGL
Weather: no significant weather observed at this time

METAR text: GMTT 221130Z 11024G35KT 9999 FEW030 18/06 Q1021 NOSIG
Conditions at: GMTT (TANGIER/BOUKHALF, MA) observed 1130 UTC 22 March 2019
Temperature: 18.0°C (64°F)
Dewpoint: 6.0°C (43°F) [RH = 45%]
Pressure (altimeter): 30.15 inches Hg (1021.0 mb)
Winds: from the ESE (110 degrees) at 28 MPH (24 knots; 12.3 m/s)
gusting to 40 MPH (35 knots; 18.0 m/s)
Visibility: 6 or more miles (10+ km)
Ceiling: at least 12,000 feet AGL
Clouds: few clouds at 3000 feet AGL
Weather: no significant weather observed at this time

METAR text: GMTT 221100Z 10020KT 9999 FEW030 18/08 Q1021 NOSIG
Conditions at: GMTT (TANGIER/BOUKHALF, MA) observed 1100 UTC 22 March 2019
Temperature: 18.0°C (64°F)
Dewpoint: 8.0°C (46°F) [RH = 52%]
Pressure (altimeter): 30.15 inches Hg (1021.0 mb)
Winds: from the E (100 degrees) at 23 MPH (20 knots; 10.3 m/s)
Visibility: 6 or more miles (10+ km)
Ceiling: at least 12,000 feet AGL
Clouds: few clouds at 3000 feet AGL
Weather: no significant weather observed at this time

METAR text: GMTT 221030Z 10022KT 9999 FEW030 18/07 Q1022 NOSIG
Conditions at: GMTT (TANGIER/BOUKHALF, MA) observed 1030 UTC 22 March 2019
Temperature: 18.0°C (64°F)
Dewpoint: 7.0°C (45°F) [RH = 49%]
Pressure (altimeter): 30.18 inches Hg (1022.0 mb)
Winds: from the E (100 degrees) at 25 MPH (22 knots; 11.3 m/s)
Visibility: 6 or more miles (10+ km)
Ceiling: at least 12,000 feet AGL
Clouds: few clouds at 3000 feet AGL
Weather: no significant weather observed at this time

METAR text: GMTT 221000Z 09020KT 9999 FEW033 17/07 Q1022 NOSIG
Conditions at: GMTT (TANGIER/BOUKHALF, MA) observed 1000 UTC 22 March 2019
Temperature: 17.0°C (63°F)
Dewpoint: 7.0°C (45°F) [RH = 52%]
Pressure (altimeter): 30.18 inches Hg (1022.0 mb)
Winds: from the E (90 degrees) at 23 MPH (20 knots; 10.3 m/s)
Visibility: 6 or more miles (10+ km)
Ceiling: at least 12,000 feet AGL
Clouds: few clouds at 3300 feet AGL
Weather: no significant weather observed at this time

METAR text: GMTT 220930Z 09017KT 9999 FEW026 SCT033 16/08 Q1022 NOSIG
Conditions at: GMTT (TANGIER/BOUKHALF, MA) observed 0930 UTC 22 March 2019
Temperature: 16.0°C (61°F)
Dewpoint: 8.0°C (46°F) [RH = 59%]
Pressure (altimeter): 30.18 inches Hg (1022.0 mb)
Winds: from the E (90 degrees) at 20 MPH (17 knots; 8.7 m/s)
Visibility: 6 or more miles (10+ km)
Ceiling: at least 12,000 feet AGL
Clouds: few clouds at 2600 feet AGL
scattered clouds at 3300 feet AGL
Weather: no significant weather observed at this time

METAR text: GMTT 220900Z 09016KT 9999 SCT026 16/07 Q1021 NOSIG
Conditions at: GMTT (TANGIER/BOUKHALF, MA) observed 0900 UTC 22 March 2019
Temperature: 16.0°C (61°F)
Dewpoint: 7.0°C (45°F) [RH = 55%]
Pressure (altimeter): 30.15 inches Hg (1021.0 mb)
Winds: from the E (90 degrees) at 18 MPH (16 knots; 8.2 m/s)
Visibility: 6 or more miles (10+ km)
Ceiling: at least 12,000 feet AGL
Clouds: scattered clouds at 2600 feet AGL
Weather: no significant weather observed at this time

METAR text: GMTT 220830Z 10017KT 9999 SCT020 16/06 Q1021 NOSIG
Conditions at: GMTT (TANGIER/BOUKHALF, MA) observed 0830 UTC 22 March 2019
Temperature: 16.0°C (61°F)
Dewpoint: 6.0°C (43°F) [RH = 51%]
Pressure (altimeter): 30.15 inches Hg (1021.0 mb)
Winds: from the E (100 degrees) at 20 MPH (17 knots; 8.7 m/s)
Visibility: 6 or more miles (10+ km)
Ceiling: at least 12,000 feet AGL
Clouds: scattered clouds at 2000 feet AGL
Weather: no significant weather observed at this time

METAR text: GMTT 220800Z 10015KT 9999 FEW020 15/06 Q1021 NOSIG
Conditions at: GMTT (TANGIER/BOUKHALF, MA) observed 0800 UTC 22 March 2019
Temperature: 15.0°C (59°F)
Dewpoint: 6.0°C (43°F) [RH = 55%]
Pressure (altimeter): 30.15 inches Hg (1021.0 mb)
Winds: from the E (100 degrees) at 17 MPH (15 knots; 7.7 m/s)
Visibility: 6 or more miles (10+ km)
Ceiling: at least 12,000 feet AGL
Clouds: few clouds at 2000 feet AGL
Weather: no significant weather observed at this time

METAR text: GMTT 220730Z 10015KT 9999 FEW020 14/06 Q1021 NOSIG
Conditions at: GMTT (TANGIER/BOUKHALF, MA) observed 0730 UTC 22 March 2019
Temperature: 14.0°C (57°F)
Dewpoint: 6.0°C (43°F) [RH = 58%]
Pressure (altimeter): 30.15 inches Hg (1021.0 mb)
Winds: from the E (100 degrees) at 17 MPH (15 knots; 7.7 m/s)
Visibility: 6 or more miles (10+ km)
Ceiling: at least 12,000 feet AGL
Clouds: few clouds at 2000 feet AGL
Weather: no significant weather observed at this time

METAR text: GMTT 220700Z 09015KT 9999 FEW020 14/06 Q1021 NOSIG
Conditions at: GMTT (TANGIER/BOUKHALF, MA) observed 0700 UTC 22 March 2019
Temperature: 14.0°C (57°F)
Dewpoint: 6.0°C (43°F) [RH = 58%]
Pressure (altimeter): 30.15 inches Hg (1021.0 mb)
Winds: from the E (90 degrees) at 17 MPH (15 knots; 7.7 m/s)
Visibility: 6 or more miles (10+ km)
Ceiling: at least 12,000 feet AGL
Clouds: few clouds at 2000 feet AGL
Weather: no significant weather observed at this time

METAR text: GMTT 220630Z 10013KT 9999 FEW020 13/06 Q1021 NOSIG
Conditions at: GMTT (TANGIER/BOUKHALF, MA) observed 0630 UTC 22 March 2019
Temperature: 13.0°C (55°F)
Dewpoint: 6.0°C (43°F) [RH = 62%]
Pressure (altimeter): 30.15 inches Hg (1021.0 mb)
Winds: from the E (100 degrees) at 15 MPH (13 knots; 6.7 m/s)
Visibility: 6 or more miles (10+ km)
Ceiling: at least 12,000 feet AGL
Clouds: few clouds at 2000 feet AGL
Weather: no significant weather observed at this time

METAR text: GMTT 220600Z 10015KT 9999 FEW020 14/06 Q1020 NOSIG
Conditions at: GMTT (TANGIER/BOUKHALF, MA) observed 0600 UTC 22 March 2019
Temperature: 14.0°C (57°F)
Dewpoint: 6.0°C (43°F) [RH = 58%]
Pressure (altimeter): 30.12 inches Hg (1020.0 mb)
Winds: from the E (100 degrees) at 17 MPH (15 knots; 7.7 m/s)
Visibility: 6 or more miles (10+ km)
Ceiling: at least 12,000 feet AGL
Clouds: few clouds at 2000 feet AGL
Weather: no significant weather observed at this time

METAR text: GMTT 220530Z 10016KT 9999 FEW020 14/06 Q1020 NOSIG
Conditions at: GMTT (TANGIER/BOUKHALF, MA) observed 0530 UTC 22 March 2019
Temperature: 14.0°C (57°F)
Dewpoint: 6.0°C (43°F) [RH = 58%]
Pressure (altimeter): 30.12 inches Hg (1020.0 mb)
Winds: from the E (100 degrees) at 18 MPH (16 knots; 8.2 m/s)
Visibility: 6 or more miles (10+ km)
Ceiling: at least 12,000 feet AGL
Clouds: few clouds at 2000 feet AGL
Weather: no significant weather observed at this time

METAR text: GMTT 220500Z 09017G27KT 9999 FEW020 14/05 Q1020 NOSIG
Conditions at: GMTT (TANGIER/BOUKHALF, MA) observed 0500 UTC 22 March 2019
Temperature: 14.0°C (57°F)
Dewpoint: 5.0°C (41°F) [RH = 55%]
Pressure (altimeter): 30.12 inches Hg (1020.0 mb)
Winds: from the E (90 degrees) at 20 MPH (17 knots; 8.7 m/s)
gusting to 31 MPH (27 knots; 13.9 m/s)
Visibility: 6 or more miles (10+ km)
Ceiling: at least 12,000 feet AGL
Clouds: few clouds at 2000 feet AGL
Weather: no significant weather observed at this time

METAR text: GMTT 220430Z 09019G30KT 9999 R28///// FEW020 14/05 Q1020 NOSIG
Conditions at: GMTT (TANGIER/BOUKHALF, MA) observed 0430 UTC 22 March 2019
Temperature: 14.0°C (57°F)
Dewpoint: 5.0°C (41°F) [RH = 55%]
Pressure (altimeter): 30.12 inches Hg (1020.0 mb)
Winds: from the E (90 degrees) at 22 MPH (19 knots; 9.8 m/s)
gusting to 34 MPH (30 knots; 15.4 m/s)
Visibility: 6 or more miles (10+ km)
Ceiling: at least 12,000 feet AGL
Clouds: few clouds at 2000 feet AGL
Weather: no significant weather observed at this time

METAR text: GMTT 220400Z 09014KT 9999 FEW020 14/05 Q1020 NOSIG
Conditions at: GMTT (TANGIER/BOUKHALF, MA) observed 0400 UTC 22 March 2019
Temperature: 14.0°C (57°F)
Dewpoint: 5.0°C (41°F) [RH = 55%]
Pressure (altimeter): 30.12 inches Hg (1020.0 mb)
Winds: from the E (90 degrees) at 16 MPH (14 knots; 7.2 m/s)
Visibility: 6 or more miles (10+ km)
Ceiling: at least 12,000 feet AGL
Clouds: few clouds at 2000 feet AGL
Weather: no significant weather observed at this time

METAR text: GMTT 220330Z 09014KT 9999 FEW020 13/05 Q1020 NOSIG
Conditions at: GMTT (TANGIER/BOUKHALF, MA) observed 0330 UTC 22 March 2019
Temperature: 13.0°C (55°F)
Dewpoint: 5.0°C (41°F) [RH = 58%]
Pressure (altimeter): 30.12 inches Hg (1020.0 mb)
Winds: from the E (90 degrees) at 16 MPH (14 knots; 7.2 m/s)
Visibility: 6 or more miles (10+ km)
Ceiling: at least 12,000 feet AGL
Clouds: few clouds at 2000 feet AGL
Weather: no significant weather observed at this time

METAR text: GMTT 220300Z 10013KT 9999 FEW020 13/06 Q1021 NOSIG
Conditions at: GMTT (TANGIER/BOUKHALF, MA) observed 0300 UTC 22 March 2019
Temperature: 13.0°C (55°F)
Dewpoint: 6.0°C (43°F) [RH = 62%]
Pressure (altimeter): 30.15 inches Hg (1021.0 mb)
Winds: from the E (100 degrees) at 15 MPH (13 knots; 6.7 m/s)
Visibility: 6 or more miles (10+ km)
Ceiling: at least 12,000 feet AGL
Clouds: few clouds at 2000 feet AGL
Weather: no significant weather observed at this time

METAR text: GMTT 220230Z 09017KT 9999 FEW020 14/06 Q1020 NOSIG
Conditions at: GMTT (TANGIER/BOUKHALF, MA) observed 0230 UTC 22 March 2019
Temperature: 14.0°C (57°F)
Dewpoint: 6.0°C (43°F) [RH = 58%]
Pressure (altimeter): 30.12 inches Hg (1020.0 mb)
Winds: from the E (90 degrees) at 20 MPH (17 knots; 8.7 m/s)
Visibility: 6 or more miles (10+ km)
Ceiling: at least 12,000 feet AGL
Clouds: few clouds at 2000 feet AGL
Weather: no significant weather observed at this time

METAR text: GMTT 220200Z 10018KT 9999 FEW020 14/06 Q1021 NOSIG
Conditions at: GMTT (TANGIER/BOUKHALF, MA) observed 0200 UTC 22 March 2019
Temperature: 14.0°C (57°F)
Dewpoint: 6.0°C (43°F) [RH = 58%]
Pressure (altimeter): 30.15 inches Hg (1021.0 mb)
Winds: from the E (100 degrees) at 21 MPH (18 knots; 9.3 m/s)
Visibility: 6 or more miles (10+ km)
Ceiling: at least 12,000 feet AGL
Clouds: few clouds at 2000 feet AGL
Weather: no significant weather observed at this time

METAR text: GMTT 220130Z 09015KT 060V120 9999 FEW020 14/05 Q1021 NOSIG
Conditions at: GMTT (TANGIER/BOUKHALF, MA) observed 0130 UTC 22 March 2019
Temperature: 14.0°C (57°F)
Dewpoint: 5.0°C (41°F) [RH = 55%]
Pressure (altimeter): 30.15 inches Hg (1021.0 mb)
Winds: from the E (90 degrees) at 17 MPH (15 knots; 7.7 m/s)
Visibility: 6 or more miles (10+ km)
Ceiling: at least 12,000 feet AGL
Clouds: few clouds at 2000 feet AGL
Weather: no significant weather observed at this time

METAR text: GMTT 220100Z 10017KT 9999 FEW020 14/05 Q1021 NOSIG
Conditions at: GMTT (TANGIER/BOUKHALF, MA) observed 0100 UTC 22 March 2019
Temperature: 14.0°C (57°F)
Dewpoint: 5.0°C (41°F) [RH = 55%]
Pressure (altimeter): 30.15 inches Hg (1021.0 mb)
Winds: from the E (100 degrees) at 20 MPH (17 knots; 8.7 m/s)
Visibility: 6 or more miles (10+ km)
Ceiling: at least 12,000 feet AGL
Clouds: few clouds at 2000 feet AGL
Weather: no significant weather observed at this time

METAR text: GMTT 220030Z 10017KT 9999 FEW020 14/05 Q1021 NOSIG
Conditions at: GMTT (TANGIER/BOUKHALF, MA) observed 0030 UTC 22 March 2019
Temperature: 14.0°C (57°F)
Dewpoint: 5.0°C (41°F) [RH = 55%]
Pressure (altimeter): 30.15 inches Hg (1021.0 mb)
Winds: from the E (100 degrees) at 20 MPH (17 knots; 8.7 m/s)
Visibility: 6 or more miles (10+ km)
Ceiling: at least 12,000 feet AGL
Clouds: few clouds at 2000 feet AGL
Weather: no significant weather observed at this time

METAR text: GMTT 220000Z 10021G32KT 9999 FEW020 14/05 Q1021 NOSIG
Conditions at: GMTT (TANGIER/BOUKHALF, MA) observed 0000 UTC 22 March 2019
Temperature: 14.0°C (57°F)
Dewpoint: 5.0°C (41°F) [RH = 55%]
Pressure (altimeter): 30.15 inches Hg (1021.0 mb)
Winds: from the E (100 degrees) at 24 MPH (21 knots; 10.8 m/s)
gusting to 37 MPH (32 knots; 16.5 m/s)
Visibility: 6 or more miles (10+ km)
Ceiling: at least 12,000 feet AGL
Clouds: few clouds at 2000 feet AGL
Weather: no significant weather observed at this time

METAR text: GMTT 212330Z 10017G30KT 9999 FEW020 14/05 Q1021 NOSIG
Conditions at: GMTT (TANGIER/BOUKHALF, MA) observed 2330 UTC 21 March 2019
Temperature: 14.0°C (57°F)
Dewpoint: 5.0°C (41°F) [RH = 55%]
Pressure (altimeter): 30.15 inches Hg (1021.0 mb)
Winds: from the E (100 degrees) at 20 MPH (17 knots; 8.7 m/s)
gusting to 34 MPH (30 knots; 15.4 m/s)
Visibility: 6 or more miles (10+ km)
Ceiling: at least 12,000 feet AGL
Clouds: few clouds at 2000 feet AGL
Weather: no significant weather observed at this time

METAR text: GMTT 212300Z 09019KT 9999 FEW020 14/04 Q1021 NOSIG
Conditions at: GMTT (TANGIER/BOUKHALF, MA) observed 2300 UTC 21 March 2019
Temperature: 14.0°C (57°F)
Dewpoint: 4.0°C (39°F) [RH = 51%]
Pressure (altimeter): 30.15 inches Hg (1021.0 mb)
Winds: from the E (90 degrees) at 22 MPH (19 knots; 9.8 m/s)
Visibility: 6 or more miles (10+ km)
Ceiling: at least 12,000 feet AGL
Clouds: few clouds at 2000 feet AGL
Weather: no significant weather observed at this time

METAR text: GMTT 212230Z 10018G29KT 9999 FEW020 14/06 Q1021 NOSIG
Conditions at: GMTT (TANGIER/BOUKHALF, MA) observed 2230 UTC 21 March 2019
Temperature: 14.0°C (57°F)
Dewpoint: 6.0°C (43°F) [RH = 58%]
Pressure (altimeter): 30.15 inches Hg (1021.0 mb)
Winds: from the E (100 degrees) at 21 MPH (18 knots; 9.3 m/s)
gusting to 33 MPH (29 knots; 14.9 m/s)
Visibility: 6 or more miles (10+ km)
Ceiling: at least 12,000 feet AGL
Clouds: few clouds at 2000 feet AGL
Weather: no significant weather observed at this time

METAR text: GMTT 212200Z 10021KT 9999 FEW020 14/07 Q1021 NOSIG
Conditions at: GMTT (TANGIER/BOUKHALF, MA) observed 2200 UTC 21 March 2019
Temperature: 14.0°C (57°F)
Dewpoint: 7.0°C (45°F) [RH = 63%]
Pressure (altimeter): 30.15 inches Hg (1021.0 mb)
Winds: from the E (100 degrees) at 24 MPH (21 knots; 10.8 m/s)
Visibility: 6 or more miles (10+ km)
Ceiling: at least 12,000 feet AGL
Clouds: few clouds at 2000 feet AGL
Weather: no significant weather observed at this time

METAR text: GMTT 212130Z 10023KT 9999 FEW020 14/07 Q1021 NOSIG
Conditions at: GMTT (TANGIER/BOUKHALF, MA) observed 2130 UTC 21 March 2019
Temperature: 14.0°C (57°F)
Dewpoint: 7.0°C (45°F) [RH = 63%]
Pressure (altimeter): 30.15 inches Hg (1021.0 mb)
Winds: from the E (100 degrees) at 26 MPH (23 knots; 11.8 m/s)
Visibility: 6 or more miles (10+ km)
Ceiling: at least 12,000 feet AGL
Clouds: few clouds at 2000 feet AGL
Weather: no significant weather observed at this time

METAR text: GMTT 212100Z 10018KT 9999 FEW020 14/06 Q1022 NOSIG
Conditions at: GMTT (TANGIER/BOUKHALF, MA) observed 2100 UTC 21 March 2019
Temperature: 14.0°C (57°F)
Dewpoint: 6.0°C (43°F) [RH = 58%]
Pressure (altimeter): 30.18 inches Hg (1022.0 mb)
Winds: from the E (100 degrees) at 21 MPH (18 knots; 9.3 m/s)
Visibility: 6 or more miles (10+ km)
Ceiling: at least 12,000 feet AGL
Clouds: few clouds at 2000 feet AGL
Weather: no significant weather observed at this time

METAR text: GMTT 212030Z 09023G33KT 9999 R28///// FEW020 14/06 Q1021 NOSIG
Conditions at: GMTT (TANGIER/BOUKHALF, MA) observed 2030 UTC 21 March 2019
Temperature: 14.0°C (57°F)
Dewpoint: 6.0°C (43°F) [RH = 58%]
Pressure (altimeter): 30.15 inches Hg (1021.0 mb)
Winds: from the E (90 degrees) at 26 MPH (23 knots; 11.8 m/s)
gusting to 38 MPH (33 knots; 17.0 m/s)
Visibility: 6 or more miles (10+ km)
Ceiling: at least 12,000 feet AGL
Clouds: few clouds at 2000 feet AGL
Weather: no significant weather observed at this time

METAR text: GMTT 212000Z 10021KT 9999 FEW020 14/06 Q1021 NOSIG
Conditions at: GMTT (TANGIER/BOUKHALF, MA) observed 2000 UTC 21 March 2019
Temperature: 14.0°C (57°F)
Dewpoint: 6.0°C (43°F) [RH = 58%]
Pressure (altimeter): 30.15 inches Hg (1021.0 mb)
Winds: from the E (100 degrees) at 24 MPH (21 knots; 10.8 m/s)
Visibility: 6 or more miles (10+ km)
Ceiling: at least 12,000 feet AGL
Clouds: few clouds at 2000 feet AGL
Weather: no significant weather observed at this time

METAR text: GMTT 211930Z 10023KT 9999 FEW020 14/06 Q1021 NOSIG
Conditions at: GMTT (TANGIER/BOUKHALF, MA) observed 1930 UTC 21 March 2019
Temperature: 14.0°C (57°F)
Dewpoint: 6.0°C (43°F) [RH = 58%]
Pressure (altimeter): 30.15 inches Hg (1021.0 mb)
Winds: from the E (100 degrees) at 26 MPH (23 knots; 11.8 m/s)
Visibility: 6 or more miles (10+ km)
Ceiling: at least 12,000 feet AGL
Clouds: few clouds at 2000 feet AGL
Weather: no significant weather observed at this time

METAR text: GMTT 211900Z 10022KT 9999 FEW020 14/06 Q1020 NOSIG
Conditions at: GMTT (TANGIER/BOUKHALF, MA) observed 1900 UTC 21 March 2019
Temperature: 14.0°C (57°F)
Dewpoint: 6.0°C (43°F) [RH = 58%]
Pressure (altimeter): 30.12 inches Hg (1020.0 mb)
Winds: from the E (100 degrees) at 25 MPH (22 knots; 11.3 m/s)
Visibility: 6 or more miles (10+ km)
Ceiling: at least 12,000 feet AGL
Clouds: few clouds at 2000 feet AGL
Weather: no significant weather observed at this time

METAR text: GMTT 211830Z 09024KT 9999 FEW020 15/06 Q1020 NOSIG
Conditions at: GMTT (TANGIER/BOUKHALF, MA) observed 1830 UTC 21 March 2019
Temperature: 15.0°C (59°F)
Dewpoint: 6.0°C (43°F) [RH = 55%]
Pressure (altimeter): 30.12 inches Hg (1020.0 mb)
Winds: from the E (90 degrees) at 28 MPH (24 knots; 12.3 m/s)
Visibility: 6 or more miles (10+ km)
Ceiling: at least 12,000 feet AGL
Clouds: few clouds at 2000 feet AGL
Weather: no significant weather observed at this time

METAR text: GMTT 211800Z 09024G35KT 9999 FEW020 15/05 Q1020 NOSIG
Conditions at: GMTT (TANGIER/BOUKHALF, MA) observed 1800 UTC 21 March 2019
Temperature: 15.0°C (59°F)
Dewpoint: 5.0°C (41°F) [RH = 51%]
Pressure (altimeter): 30.12 inches Hg (1020.0 mb)
Winds: from the E (90 degrees) at 28 MPH (24 knots; 12.3 m/s)
gusting to 40 MPH (35 knots; 18.0 m/s)
Visibility: 6 or more miles (10+ km)
Ceiling: at least 12,000 feet AGL
Clouds: few clouds at 2000 feet AGL
Weather: no significant weather observed at this time

METAR text: GMTT 211730Z 09024G34KT 9999 FEW020 16/06 Q1020 NOSIG
Conditions at: GMTT (TANGIER/BOUKHALF, MA) observed 1730 UTC 21 March 2019
Temperature: 16.0°C (61°F)
Dewpoint: 6.0°C (43°F) [RH = 51%]
Pressure (altimeter): 30.12 inches Hg (1020.0 mb)
Winds: from the E (90 degrees) at 28 MPH (24 knots; 12.3 m/s)
gusting to 39 MPH (34 knots; 17.5 m/s)
Visibility: 6 or more miles (10+ km)
Ceiling: at least 12,000 feet AGL
Clouds: few clouds at 2000 feet AGL
Weather: no significant weather observed at this time

METAR text: GMTT 211700Z 09023G33KT 9999 FEW020 16/06 Q1020 NOSIG
Conditions at: GMTT (TANGIER/BOUKHALF, MA) observed 1700 UTC 21 March 2019
Temperature: 16.0°C (61°F)
Dewpoint: 6.0°C (43°F) [RH = 51%]
Pressure (altimeter): 30.12 inches Hg (1020.0 mb)
Winds: from the E (90 degrees) at 26 MPH (23 knots; 11.8 m/s)
gusting to 38 MPH (33 knots; 17.0 m/s)
Visibility: 6 or more miles (10+ km)
Ceiling: at least 12,000 feet AGL
Clouds: few clouds at 2000 feet AGL
Weather: no significant weather observed at this time

METAR text: GMTT 211630Z 10021KT 9999 SCT020 17/05 Q1021 NOSIG
Conditions at: GMTT (TANGIER/BOUKHALF, MA) observed 1630 UTC 21 March 2019
Temperature: 17.0°C (63°F)
Dewpoint: 5.0°C (41°F) [RH = 45%]
Pressure (altimeter): 30.15 inches Hg (1021.0 mb)
Winds: from the E (100 degrees) at 24 MPH (21 knots; 10.8 m/s)
Visibility: 6 or more miles (10+ km)
Ceiling: at least 12,000 feet AGL
Clouds: scattered clouds at 2000 feet AGL
Weather: no significant weather observed at this time

METAR text: GMTT 211600Z 09020G33KT 9999 SCT020 17/05 Q1021 NOSIG
Conditions at: GMTT (TANGIER/BOUKHALF, MA) observed 1600 UTC 21 March 2019
Temperature: 17.0°C (63°F)
Dewpoint: 5.0°C (41°F) [RH = 45%]
Pressure (altimeter): 30.15 inches Hg (1021.0 mb)
Winds: from the E (90 degrees) at 23 MPH (20 knots; 10.3 m/s)
gusting to 38 MPH (33 knots; 17.0 m/s)
Visibility: 6 or more miles (10+ km)
Ceiling: at least 12,000 feet AGL
Clouds: scattered clouds at 2000 feet AGL
Weather: no significant weather observed at this time

METAR text: GMTT 211530Z 09021KT 9999 SCT020 17/05 Q1021 NOSIG
Conditions at: GMTT (TANGIER/BOUKHALF, MA) observed 1530 UTC 21 March 2019
Temperature: 17.0°C (63°F)
Dewpoint: 5.0°C (41°F) [RH = 45%]
Pressure (altimeter): 30.15 inches Hg (1021.0 mb)
Winds: from the E (90 degrees) at 24 MPH (21 knots; 10.8 m/s)
Visibility: 6 or more miles (10+ km)
Ceiling: at least 12,000 feet AGL
Clouds: scattered clouds at 2000 feet AGL
Weather: no significant weather observed at this time

METAR text: GMTT 211500Z 09019KT 050V110 9999 SCT020 17/05 Q1021 NOSIG
Conditions at: GMTT (TANGIER/BOUKHALF, MA) observed 1500 UTC 21 March 2019
Temperature: 17.0°C (63°F)
Dewpoint: 5.0°C (41°F) [RH = 45%]
Pressure (altimeter): 30.15 inches Hg (1021.0 mb)
Winds: from the E (90 degrees) at 22 MPH (19 knots; 9.8 m/s)
Visibility: 6 or more miles (10+ km)
Ceiling: at least 12,000 feet AGL
Clouds: scattered clouds at 2000 feet AGL
Weather: no significant weather observed at this time

METAR text: GMTT 211430Z 10022G33KT 9999 SCT020 18/05 Q1021 NOSIG
Conditions at: GMTT (TANGIER/BOUKHALF, MA) observed 1430 UTC 21 March 2019
Temperature: 18.0°C (64°F)
Dewpoint: 5.0°C (41°F) [RH = 42%]
Pressure (altimeter): 30.15 inches Hg (1021.0 mb)
Winds: from the E (100 degrees) at 25 MPH (22 knots; 11.3 m/s)
gusting to 38 MPH (33 knots; 17.0 m/s)
Visibility: 6 or more miles (10+ km)
Ceiling: at least 12,000 feet AGL
Clouds: scattered clouds at 2000 feet AGL
Weather: no significant weather observed at this time

METAR text: GMTT 211400Z 09021G32KT 9999 SCT020 17/05 Q1022 NOSIG
Conditions at: GMTT (TANGIER/BOUKHALF, MA) observed 1400 UTC 21 March 2019
Temperature: 17.0°C (63°F)
Dewpoint: 5.0°C (41°F) [RH = 45%]
Pressure (altimeter): 30.18 inches Hg (1022.0 mb)
Winds: from the E (90 degrees) at 24 MPH (21 knots; 10.8 m/s)
gusting to 37 MPH (32 knots; 16.5 m/s)
Visibility: 6 or more miles (10+ km)
Ceiling: at least 12,000 feet AGL
Clouds: scattered clouds at 2000 feet AGL
Weather: no significant weather observed at this time

METAR text: GMTT 211330Z 10024G37KT 9999 FEW016 18/05 Q1022 NOSIG
Conditions at: GMTT (TANGIER/BOUKHALF, MA) observed 1330 UTC 21 March 2019
Temperature: 18.0°C (64°F)
Dewpoint: 5.0°C (41°F) [RH = 42%]
Pressure (altimeter): 30.18 inches Hg (1022.0 mb)
Winds: from the E (100 degrees) at 28 MPH (24 knots; 12.3 m/s)
gusting to 43 MPH (37 knots; 19.0 m/s)
Visibility: 6 or more miles (10+ km)
Ceiling: at least 12,000 feet AGL
Clouds: few clouds at 1600 feet AGL
Weather: no significant weather observed at this time

METAR text: GMTT 211300Z 09022KT 9999 FEW016 17/06 Q1021 NOSIG
Conditions at: GMTT (TANGIER/BOUKHALF, MA) observed 1300 UTC 21 March 2019
Temperature: 17.0°C (63°F)
Dewpoint: 6.0°C (43°F) [RH = 48%]
Pressure (altimeter): 30.15 inches Hg (1021.0 mb)
Winds: from the E (90 degrees) at 25 MPH (22 knots; 11.3 m/s)
Visibility: 6 or more miles (10+ km)
Ceiling: at least 12,000 feet AGL
Clouds: few clouds at 1600 feet AGL
Weather: no significant weather observed at this time

METAR text: GMTT 211230Z 10023KT 070V130 9999 FEW016 17/05 Q1022 NOSIG
Conditions at: GMTT (TANGIER/BOUKHALF, MA) observed 1230 UTC 21 March 2019
Temperature: 17.0°C (63°F)
Dewpoint: 5.0°C (41°F) [RH = 45%]
Pressure (altimeter): 30.18 inches Hg (1022.0 mb)
Winds: from the E (100 degrees) at 26 MPH (23 knots; 11.8 m/s)
Visibility: 6 or more miles (10+ km)
Ceiling: at least 12,000 feet AGL
Clouds: few clouds at 1600 feet AGL
Weather: no significant weather observed at this time

METAR text: GMTT 211200Z 10020G34KT 080V140 9999 FEW016 17/05 Q1022 NOSIG
Conditions at: GMTT (TANGIER/BOUKHALF, MA) observed 1200 UTC 21 March 2019
Temperature: 17.0°C (63°F)
Dewpoint: 5.0°C (41°F) [RH = 45%]
Pressure (altimeter): 30.18 inches Hg (1022.0 mb)
Winds: from the E (100 degrees) at 23 MPH (20 knots; 10.3 m/s)
gusting to 39 MPH (34 knots; 17.5 m/s)
Visibility: 6 or more miles (10+ km)
Ceiling: at least 12,000 feet AGL
Clouds: few clouds at 1600 feet AGL
Weather: no significant weather observed at this time

METAR text: GMTT 211130Z 08023G34KT 9999 FEW016 16/04 Q1022 NOSIG
Conditions at: GMTT (TANGIER/BOUKHALF, MA) observed 1130 UTC 21 March 2019
Temperature: 16.0°C (61°F)
Dewpoint: 4.0°C (39°F) [RH = 45%]
Pressure (altimeter): 30.18 inches Hg (1022.0 mb)
Winds: from the E (80 degrees) at 26 MPH (23 knots; 11.8 m/s)
gusting to 39 MPH (34 knots; 17.5 m/s)
Visibility: 6 or more miles (10+ km)
Ceiling: at least 12,000 feet AGL
Clouds: few clouds at 1600 feet AGL
Weather: no significant weather observed at this time

METAR text: GMTT 211100Z 09021G31KT 9999 FEW016 16/06 Q1022 NOSIG
Conditions at: GMTT (TANGIER/BOUKHALF, MA) observed 1100 UTC 21 March 2019
Temperature: 16.0°C (61°F)
Dewpoint: 6.0°C (43°F) [RH = 51%]
Pressure (altimeter): 30.18 inches Hg (1022.0 mb)
Winds: from the E (90 degrees) at 24 MPH (21 knots; 10.8 m/s)
gusting to 36 MPH (31 knots; 15.9 m/s)
Visibility: 6 or more miles (10+ km)
Ceiling: at least 12,000 feet AGL
Clouds: few clouds at 1600 feet AGL
Weather: no significant weather observed at this time

METAR text: GMTT 211030Z 09020G30KT 9999 FEW016 16/05 Q1022 NOSIG
Conditions at: GMTT (TANGIER/BOUKHALF, MA) observed 1030 UTC 21 March 2019
Temperature: 16.0°C (61°F)
Dewpoint: 5.0°C (41°F) [RH = 48%]
Pressure (altimeter): 30.18 inches Hg (1022.0 mb)
Winds: from the E (90 degrees) at 23 MPH (20 knots; 10.3 m/s)
gusting to 34 MPH (30 knots; 15.4 m/s)
Visibility: 6 or more miles (10+ km)
Ceiling: at least 12,000 feet AGL
Clouds: few clouds at 1600 feet AGL
Weather: no significant weather observed at this time

METAR text: GMTT 211000Z 09016G26KT 9999 FEW016 16/07 Q1022 NOSIG
Conditions at: GMTT (TANGIER/BOUKHALF, MA) observed 1000 UTC 21 March 2019
Temperature: 16.0°C (61°F)
Dewpoint: 7.0°C (45°F) [RH = 55%]
Pressure (altimeter): 30.18 inches Hg (1022.0 mb)
Winds: from the E (90 degrees) at 18 MPH (16 knots; 8.2 m/s)
gusting to 30 MPH (26 knots; 13.4 m/s)
Visibility: 6 or more miles (10+ km)
Ceiling: at least 12,000 feet AGL
Clouds: few clouds at 1600 feet AGL
Weather: no significant weather observed at this time

METAR text: GMTT 210930Z 10020G30KT 070V130 9999 FEW016 14/05 Q1022 NOSIG
Conditions at: GMTT (TANGIER/BOUKHALF, MA) observed 0930 UTC 21 March 2019
Temperature: 14.0°C (57°F)
Dewpoint: 5.0°C (41°F) [RH = 55%]
Pressure (altimeter): 30.18 inches Hg (1022.0 mb)
Winds: from the E (100 degrees) at 23 MPH (20 knots; 10.3 m/s)
gusting to 34 MPH (30 knots; 15.4 m/s)
Visibility: 6 or more miles (10+ km)
Ceiling: at least 12,000 feet AGL
Clouds: few clouds at 1600 feet AGL
Weather: no significant weather observed at this time

METAR text: GMTT 210900Z 09022G36KT 9999 FEW016 15/04 Q1022 NOSIG
Conditions at: GMTT (TANGIER/BOUKHALF, MA) observed 0900 UTC 21 March 2019
Temperature: 15.0°C (59°F)
Dewpoint: 4.0°C (39°F) [RH = 48%]
Pressure (altimeter): 30.18 inches Hg (1022.0 mb)
Winds: from the E (90 degrees) at 25 MPH (22 knots; 11.3 m/s)
gusting to 41 MPH (36 knots; 18.5 m/s)
Visibility: 6 or more miles (10+ km)
Ceiling: at least 12,000 feet AGL
Clouds: few clouds at 1600 feet AGL
Weather: no significant weather observed at this time

METAR text: GMTT 210830Z 10019G31KT 9999 FEW016 14/04 Q1022 NOSIG
Conditions at: GMTT (TANGIER/BOUKHALF, MA) observed 0830 UTC 21 March 2019
Temperature: 14.0°C (57°F)
Dewpoint: 4.0°C (39°F) [RH = 51%]
Pressure (altimeter): 30.18 inches Hg (1022.0 mb)
Winds: from the E (100 degrees) at 22 MPH (19 knots; 9.8 m/s)
gusting to 36 MPH (31 knots; 15.9 m/s)
Visibility: 6 or more miles (10+ km)
Ceiling: at least 12,000 feet AGL
Clouds: few clouds at 1600 feet AGL
Weather: no significant weather observed at this time

METAR text: GMTT 210800Z 10019G31KT 9999 FEW016 14/05 Q1022 NOSIG
Conditions at: GMTT (TANGIER/BOUKHALF, MA) observed 0800 UTC 21 March 2019
Temperature: 14.0°C (57°F)
Dewpoint: 5.0°C (41°F) [RH = 55%]
Pressure (altimeter): 30.18 inches Hg (1022.0 mb)
Winds: from the E (100 degrees) at 22 MPH (19 knots; 9.8 m/s)
gusting to 36 MPH (31 knots; 15.9 m/s)
Visibility: 6 or more miles (10+ km)
Ceiling: at least 12,000 feet AGL
Clouds: few clouds at 1600 feet AGL
Weather: no significant weather observed at this time

METAR text: GMTT 210730Z 10017G27KT 9999 FEW016 13/05 Q1021 NOSIG
Conditions at: GMTT (TANGIER/BOUKHALF, MA) observed 0730 UTC 21 March 2019
Temperature: 13.0°C (55°F)
Dewpoint: 5.0°C (41°F) [RH = 58%]
Pressure (altimeter): 30.15 inches Hg (1021.0 mb)
Winds: from the E (100 degrees) at 20 MPH (17 knots; 8.7 m/s)
gusting to 31 MPH (27 knots; 13.9 m/s)
Visibility: 6 or more miles (10+ km)
Ceiling: at least 12,000 feet AGL
Clouds: few clouds at 1600 feet AGL
Weather: no significant weather observed at this time

METAR text: GMTT 210700Z 10017G27KT 9999 FEW016 13/05 Q1021 NOSIG
Conditions at: GMTT (TANGIER/BOUKHALF, MA) observed 0700 UTC 21 March 2019
Temperature: 13.0°C (55°F)
Dewpoint: 5.0°C (41°F) [RH = 58%]
Pressure (altimeter): 30.15 inches Hg (1021.0 mb)
Winds: from the E (100 degrees) at 20 MPH (17 knots; 8.7 m/s)
gusting to 31 MPH (27 knots; 13.9 m/s)
Visibility: 6 or more miles (10+ km)
Ceiling: at least 12,000 feet AGL
Clouds: few clouds at 1600 feet AGL
Weather: no significant weather observed at this time

METAR text: GMTT 210630Z 10019G30KT 9999 SCT016 13/04 Q1021 NOSIG
Conditions at: GMTT (TANGIER/BOUKHALF, MA) observed 0630 UTC 21 March 2019
Temperature: 13.0°C (55°F)
Dewpoint: 4.0°C (39°F) [RH = 54%]
Pressure (altimeter): 30.15 inches Hg (1021.0 mb)
Winds: from the E (100 degrees) at 22 MPH (19 knots; 9.8 m/s)
gusting to 34 MPH (30 knots; 15.4 m/s)
Visibility: 6 or more miles (10+ km)
Ceiling: at least 12,000 feet AGL
Clouds: scattered clouds at 1600 feet AGL
Weather: no significant weather observed at this time

METAR text: GMTT 210600Z 10017KT 070V130 9999 FEW016 13/04 Q1021 NOSIG
Conditions at: GMTT (TANGIER/BOUKHALF, MA) observed 0600 UTC 21 March 2019
Temperature: 13.0°C (55°F)
Dewpoint: 4.0°C (39°F) [RH = 54%]
Pressure (altimeter): 30.15 inches Hg (1021.0 mb)
Winds: from the E (100 degrees) at 20 MPH (17 knots; 8.7 m/s)
Visibility: 6 or more miles (10+ km)
Ceiling: at least 12,000 feet AGL
Clouds: few clouds at 1600 feet AGL
Weather: no significant weather observed at this time

METAR text: GMTT 210530Z 10016KT 9999 FEW016 13/04 Q1021 NOSIG
Conditions at: GMTT (TANGIER/BOUKHALF, MA) observed 0530 UTC 21 March 2019
Temperature: 13.0°C (55°F)
Dewpoint: 4.0°C (39°F) [RH = 54%]
Pressure (altimeter): 30.15 inches Hg (1021.0 mb)
Winds: from the E (100 degrees) at 18 MPH (16 knots; 8.2 m/s)
Visibility: 6 or more miles (10+ km)
Ceiling: at least 12,000 feet AGL
Clouds: few clouds at 1600 feet AGL
Weather: no significant weather observed at this time

METAR text: GMTT 210500Z 10016KT 9999 FEW016 13/04 Q1021 NOSIG
Conditions at: GMTT (TANGIER/BOUKHALF, MA) observed 0500 UTC 21 March 2019
Temperature: 13.0°C (55°F)
Dewpoint: 4.0°C (39°F) [RH = 54%]
Pressure (altimeter): 30.15 inches Hg (1021.0 mb)
Winds: from the E (100 degrees) at 18 MPH (16 knots; 8.2 m/s)
Visibility: 6 or more miles (10+ km)
Ceiling: at least 12,000 feet AGL
Clouds: few clouds at 1600 feet AGL
Weather: no significant weather observed at this time

METAR text: GMTT 210430Z 10015G26KT 9999 FEW016 13/04 Q1021 NOSIG
Conditions at: GMTT (TANGIER/BOUKHALF, MA) observed 0430 UTC 21 March 2019
Temperature: 13.0°C (55°F)
Dewpoint: 4.0°C (39°F) [RH = 54%]
Pressure (altimeter): 30.15 inches Hg (1021.0 mb)
Winds: from the E (100 degrees) at 17 MPH (15 knots; 7.7 m/s)
gusting to 30 MPH (26 knots; 13.4 m/s)
Visibility: 6 or more miles (10+ km)
Ceiling: at least 12,000 feet AGL
Clouds: few clouds at 1600 feet AGL
Weather: no significant weather observed at this time

METAR text: GMTT 210400Z 10012KT 9999 FEW016 13/05 Q1020 NOSIG
Conditions at: GMTT (TANGIER/BOUKHALF, MA) observed 0400 UTC 21 March 2019
Temperature: 13.0°C (55°F)
Dewpoint: 5.0°C (41°F) [RH = 58%]
Pressure (altimeter): 30.12 inches Hg (1020.0 mb)
Winds: from the E (100 degrees) at 14 MPH (12 knots; 6.2 m/s)
Visibility: 6 or more miles (10+ km)
Ceiling: at least 12,000 feet AGL
Clouds: few clouds at 1600 feet AGL
Weather: no significant weather observed at this time

METAR text: GMTT 210330Z 10015KT 9999 FEW016 13/05 Q1020 NOSIG
Conditions at: GMTT (TANGIER/BOUKHALF, MA) observed 0330 UTC 21 March 2019
Temperature: 13.0°C (55°F)
Dewpoint: 5.0°C (41°F) [RH = 58%]
Pressure (altimeter): 30.12 inches Hg (1020.0 mb)
Winds: from the E (100 degrees) at 17 MPH (15 knots; 7.7 m/s)
Visibility: 6 or more miles (10+ km)
Ceiling: at least 12,000 feet AGL
Clouds: few clouds at 1600 feet AGL
Weather: no significant weather observed at this time

METAR text: GMTT 210300Z 10016KT 9999 FEW016 13/05 Q1021 NOSIG
Conditions at: GMTT (TANGIER/BOUKHALF, MA) observed 0300 UTC 21 March 2019
Temperature: 13.0°C (55°F)
Dewpoint: 5.0°C (41°F) [RH = 58%]
Pressure (altimeter): 30.15 inches Hg (1021.0 mb)
Winds: from the E (100 degrees) at 18 MPH (16 knots; 8.2 m/s)
Visibility: 6 or more miles (10+ km)
Ceiling: at least 12,000 feet AGL
Clouds: few clouds at 1600 feet AGL
Weather: no significant weather observed at this time

METAR text: GMTT 210230Z 11016KT 9999 FEW016 13/05 Q1021 NOSIG
Conditions at: GMTT (TANGIER/BOUKHALF, MA) observed 0230 UTC 21 March 2019
Temperature: 13.0°C (55°F)
Dewpoint: 5.0°C (41°F) [RH = 58%]
Pressure (altimeter): 30.15 inches Hg (1021.0 mb)
Winds: from the ESE (110 degrees) at 18 MPH (16 knots; 8.2 m/s)
Visibility: 6 or more miles (10+ km)
Ceiling: at least 12,000 feet AGL
Clouds: few clouds at 1600 feet AGL
Weather: no significant weather observed at this time

METAR text: GMTT 210200Z 11016G26KT 9999 FEW016 13/05 Q1021 NOSIG
Conditions at: GMTT (TANGIER/BOUKHALF, MA) observed 0200 UTC 21 March 2019
Temperature: 13.0°C (55°F)
Dewpoint: 5.0°C (41°F) [RH = 58%]
Pressure (altimeter): 30.15 inches Hg (1021.0 mb)
Winds: from the ESE (110 degrees) at 18 MPH (16 knots; 8.2 m/s)
gusting to 30 MPH (26 knots; 13.4 m/s)
Visibility: 6 or more miles (10+ km)
Ceiling: at least 12,000 feet AGL
Clouds: few clouds at 1600 feet AGL
Weather: no significant weather observed at this time

METAR text: GMTT 210130Z 10017KT 9999 FEW016 13/05 Q1021 NOSIG
Conditions at: GMTT (TANGIER/BOUKHALF, MA) observed 0130 UTC 21 March 2019
Temperature: 13.0°C (55°F)
Dewpoint: 5.0°C (41°F) [RH = 58%]
Pressure (altimeter): 30.15 inches Hg (1021.0 mb)
Winds: from the E (100 degrees) at 20 MPH (17 knots; 8.7 m/s)
Visibility: 6 or more miles (10+ km)
Ceiling: at least 12,000 feet AGL
Clouds: few clouds at 1600 feet AGL
Weather: no significant weather observed at this time

METAR text: GMTT 210100Z 10017G28KT 9999 FEW016 14/05 Q1021 NOSIG
Conditions at: GMTT (TANGIER/BOUKHALF, MA) observed 0100 UTC 21 March 2019
Temperature: 14.0°C (57°F)
Dewpoint: 5.0°C (41°F) [RH = 55%]
Pressure (altimeter): 30.15 inches Hg (1021.0 mb)
Winds: from the E (100 degrees) at 20 MPH (17 knots; 8.7 m/s)
gusting to 32 MPH (28 knots; 14.4 m/s)
Visibility: 6 or more miles (10+ km)
Ceiling: at least 12,000 feet AGL
Clouds: few clouds at 1600 feet AGL
Weather: no significant weather observed at this time

METAR text: GMTT 210030Z 10017KT 9999 FEW016 14/05 Q1022 NOSIG
Conditions at: GMTT (TANGIER/BOUKHALF, MA) observed 0030 UTC 21 March 2019
Temperature: 14.0°C (57°F)
Dewpoint: 5.0°C (41°F) [RH = 55%]
Pressure (altimeter): 30.18 inches Hg (1022.0 mb)
Winds: from the E (100 degrees) at 20 MPH (17 knots; 8.7 m/s)
Visibility: 6 or more miles (10+ km)
Ceiling: at least 12,000 feet AGL
Clouds: few clouds at 1600 feet AGL
Weather: no significant weather observed at this time

Forecast for: GMTT (TANGIER/BOUKHALF, MA)
Text: TAF GMTT 221100Z 2212/2318 08025G40KT 9999 SCT020
Forecast period: 1200 UTC 22 March 2019 to 1800 UTC 23 March 2019
Forecast type: FROM: standard forecast or significant change
Winds: from the E (80 degrees) at 29 MPH (25 knots; 12.9 m/s)
gusting to 46 MPH (40 knots; 20.6 m/s)
Visibility: 6 or more miles 10+ km)
Ceiling: at least 12,000 feet AGL
Clouds: scattered clouds at 2000 feet AGL
Weather: no significant weather forecast for this period